sensor_id;sensor_type;location;lat;lon;timestamp;P1;durP1;ratioP1;P2;durP2;ratioP2
5871;SDS011;2962;51.312;7.378;2023-11-21T00:00:55;21.60;;;8.20;;
5871;SDS011;2962;51.312;7.378;2023-11-21T00:03:20;8.13;;;5.33;;
5871;SDS011;2962;51.312;7.378;2023-11-21T00:05:48;13.23;;;5.47;;
5871;SDS011;2962;51.312;7.378;2023-11-21T00:08:13;7.20;;;5.17;;
5871;SDS011;2962;51.312;7.378;2023-11-21T00:10:39;7.47;;;4.90;;
5871;SDS011;2962;51.312;7.378;2023-11-21T00:13:04;7.80;;;4.43;;
5871;SDS011;2962;51.312;7.378;2023-11-21T00:15:29;7.13;;;3.50;;
5871;SDS011;2962;51.312;7.378;2023-11-21T00:17:55;6.77;;;4.07;;
5871;SDS011;2962;51.312;7.378;2023-11-21T00:20:20;5.53;;;3.67;;
5871;SDS011;2962;51.312;7.378;2023-11-21T00:22:45;4.57;;;3.20;;
5871;SDS011;2962;51.312;7.378;2023-11-21T00:25:11;6.30;;;3.30;;
5871;SDS011;2962;51.312;7.378;2023-11-21T00:27:37;5.10;;;3.73;;
5871;SDS011;2962;51.312;7.378;2023-11-21T00:30:03;11.33;;;3.77;;
5871;SDS011;2962;51.312;7.378;2023-11-21T00:32:30;9.40;;;4.03;;
5871;SDS011;2962;51.312;7.378;2023-11-21T00:34:55;5.87;;;4.13;;
5871;SDS011;2962;51.312;7.378;2023-11-21T00:37:21;7.13;;;3.80;;
5871;SDS011;2962;51.312;7.378;2023-11-21T00:39:46;9.63;;;4.27;;
5871;SDS011;2962;51.312;7.378;2023-11-21T00:42:12;6.40;;;4.97;;
5871;SDS011;2962;51.312;7.378;2023-11-21T00:44:38;8.30;;;5.07;;
5871;SDS011;2962;51.312;7.378;2023-11-21T00:47:04;6.27;;;5.43;;
5871;SDS011;2962;51.312;7.378;2023-11-21T00:49:29;8.87;;;5.60;;
5871;SDS011;2962;51.312;7.378;2023-11-21T00:51:55;13.27;;;5.67;;
5871;SDS011;2962;51.312;7.378;2023-11-21T00:54:23;14.93;;;5.97;;
5871;SDS011;2962;51.312;7.378;2023-11-21T00:56:48;9.20;;;5.40;;
5871;SDS011;2962;51.312;7.378;2023-11-21T00:59:13;12.40;;;6.63;;
5871;SDS011;2962;51.312;7.378;2023-11-21T01:01:39;9.40;;;6.70;;
5871;SDS011;2962;51.312;7.378;2023-11-21T01:04:04;6.10;;;5.50;;
5871;SDS011;2962;51.312;7.378;2023-11-21T01:06:31;12.13;;;6.33;;
5871;SDS011;2962;51.312;7.378;2023-11-21T01:08:57;12.80;;;6.30;;
5871;SDS011;2962;51.312;7.378;2023-11-21T01:11:22;11.30;;;5.73;;
5871;SDS011;2962;51.312;7.378;2023-11-21T01:13:47;13.60;;;6.73;;
5871;SDS011;2962;51.312;7.378;2023-11-21T01:16:12;14.57;;;8.07;;
5871;SDS011;2962;51.312;7.378;2023-11-21T01:18:38;15.93;;;5.93;;
5871;SDS011;2962;51.312;7.378;2023-11-21T01:21:03;10.30;;;6.13;;
5871;SDS011;2962;51.312;7.378;2023-11-21T01:23:29;7.47;;;6.00;;
5871;SDS011;2962;51.312;7.378;2023-11-21T01:25:55;20.53;;;7.10;;
5871;SDS011;2962;51.312;7.378;2023-11-21T01:28:21;11.63;;;5.53;;
5871;SDS011;2962;51.312;7.378;2023-11-21T01:30:46;15.13;;;6.20;;
5871;SDS011;2962;51.312;7.378;2023-11-21T01:33:13;11.57;;;6.30;;
5871;SDS011;2962;51.312;7.378;2023-11-21T01:35:41;16.90;;;7.00;;
5871;SDS011;2962;51.312;7.378;2023-11-21T01:38:07;18.83;;;7.20;;
5871;SDS011;2962;51.312;7.378;2023-11-21T01:40:33;13.80;;;6.90;;
5871;SDS011;2962;51.312;7.378;2023-11-21T01:42:58;20.33;;;5.90;;
5871;SDS011;2962;51.312;7.378;2023-11-21T01:45:24;17.43;;;6.83;;
5871;SDS011;2962;51.312;7.378;2023-11-21T01:47:50;25.67;;;6.70;;
5871;SDS011;2962;51.312;7.378;2023-11-21T01:50:16;26.17;;;8.13;;
5871;SDS011;2962;51.312;7.378;2023-11-21T01:52:42;15.40;;;7.50;;
5871;SDS011;2962;51.312;7.378;2023-11-21T01:55:09;19.90;;;9.10;;
5871;SDS011;2962;51.312;7.378;2023-11-21T01:57:36;24.57;;;10.33;;
5871;SDS011;2962;51.312;7.378;2023-11-21T02:00:05;30.17;;;10.40;;
5871;SDS011;2962;51.312;7.378;2023-11-21T02:02:47;29.70;;;9.67;;
5871;SDS011;2962;51.312;7.378;2023-11-21T02:05:14;31.43;;;11.40;;
5871;SDS011;2962;51.312;7.378;2023-11-21T02:07:42;45.77;;;12.97;;
5871;SDS011;2962;51.312;7.378;2023-11-21T02:10:12;54.07;;;13.83;;
5871;SDS011;2962;51.312;7.378;2023-11-21T02:12:40;38.83;;;13.03;;
5871;SDS011;2962;51.312;7.378;2023-11-21T02:15:07;81.33;;;14.30;;
5871;SDS011;2962;51.312;7.378;2023-11-21T02:17:40;100.23;;;17.70;;
5871;SDS011;2962;51.312;7.378;2023-11-21T02:20:07;81.70;;;14.97;;
5871;SDS011;2962;51.312;7.378;2023-11-21T02:22:32;64.83;;;13.83;;
5871;SDS011;2962;51.312;7.378;2023-11-21T02:25:05;39.20;;;12.40;;
5871;SDS011;2962;51.312;7.378;2023-11-21T02:27:32;74.63;;;14.60;;
5871;SDS011;2962;51.312;7.378;2023-11-21T02:29:58;122.73;;;16.63;;
5871;SDS011;2962;51.312;7.378;2023-11-21T02:32:23;39.03;;;11.57;;
5871;SDS011;2962;51.312;7.378;2023-11-21T02:34:51;71.70;;;13.10;;
5871;SDS011;2962;51.312;7.378;2023-11-21T02:37:16;122.13;;;14.93;;
5871;SDS011;2962;51.312;7.378;2023-11-21T02:39:41;127.43;;;15.73;;
5871;SDS011;2962;51.312;7.378;2023-11-21T02:42:07;72.97;;;14.00;;
5871;SDS011;2962;51.312;7.378;2023-11-21T02:44:32;30.07;;;11.33;;
5871;SDS011;2962;51.312;7.378;2023-11-21T02:46:58;44.97;;;12.07;;
5871;SDS011;2962;51.312;7.378;2023-11-21T02:49:23;33.97;;;13.10;;
5871;SDS011;2962;51.312;7.378;2023-11-21T02:51:48;46.63;;;13.40;;
5871;SDS011;2962;51.312;7.378;2023-11-21T02:54:14;59.13;;;15.10;;
5871;SDS011;2962;51.312;7.378;2023-11-21T02:56:39;37.00;;;13.70;;
5871;SDS011;2962;51.312;7.378;2023-11-21T02:59:05;37.73;;;12.83;;
5871;SDS011;2962;51.312;7.378;2023-11-21T03:01:30;26.30;;;12.50;;
5871;SDS011;2962;51.312;7.378;2023-11-21T03:03:56;44.77;;;12.07;;
5871;SDS011;2962;51.312;7.378;2023-11-21T03:06:21;30.70;;;12.83;;
5871;SDS011;2962;51.312;7.378;2023-11-21T03:08:47;34.07;;;12.37;;
5871;SDS011;2962;51.312;7.378;2023-11-21T03:11:13;28.27;;;12.33;;
5871;SDS011;2962;51.312;7.378;2023-11-21T03:13:39;28.77;;;11.17;;
5871;SDS011;2962;51.312;7.378;2023-11-21T03:16:09;29.30;;;11.43;;
5871;SDS011;2962;51.312;7.378;2023-11-21T03:18:35;27.07;;;12.27;;
5871;SDS011;2962;51.312;7.378;2023-11-21T03:21:01;27.43;;;11.80;;
5871;SDS011;2962;51.312;7.378;2023-11-21T03:23:26;33.30;;;12.20;;
5871;SDS011;2962;51.312;7.378;2023-11-21T03:25:52;23.87;;;11.90;;
5871;SDS011;2962;51.312;7.378;2023-11-21T03:28:17;28.00;;;11.50;;
5871;SDS011;2962;51.312;7.378;2023-11-21T03:30:43;38.60;;;12.17;;
5871;SDS011;2962;51.312;7.378;2023-11-21T03:33:08;27.60;;;11.93;;
5871;SDS011;2962;51.312;7.378;2023-11-21T03:35:33;24.53;;;11.00;;
5871;SDS011;2962;51.312;7.378;2023-11-21T03:37:58;30.43;;;11.40;;
5871;SDS011;2962;51.312;7.378;2023-11-21T03:40:24;31.83;;;12.60;;
5871;SDS011;2962;51.312;7.378;2023-11-21T03:42:49;22.73;;;10.60;;
5871;SDS011;2962;51.312;7.378;2023-11-21T03:45:15;34.23;;;11.90;;
5871;SDS011;2962;51.312;7.378;2023-11-21T03:47:41;33.43;;;11.70;;
5871;SDS011;2962;51.312;7.378;2023-11-21T03:50:07;29.30;;;11.60;;
5871;SDS011;2962;51.312;7.378;2023-11-21T03:52:34;29.60;;;11.93;;
5871;SDS011;2962;51.312;7.378;2023-11-21T03:55:00;30.23;;;11.60;;
5871;SDS011;2962;51.312;7.378;2023-11-21T03:57:25;26.40;;;12.10;;
5871;SDS011;2962;51.312;7.378;2023-11-21T03:59:52;29.50;;;12.00;;
5871;SDS011;2962;51.312;7.378;2023-11-21T04:02:18;23.80;;;11.03;;
5871;SDS011;2962;51.312;7.378;2023-11-21T04:04:43;30.43;;;11.00;;
5871;SDS011;2962;51.312;7.378;2023-11-21T04:07:09;28.03;;;10.63;;
5871;SDS011;2962;51.312;7.378;2023-11-21T04:09:34;25.77;;;8.90;;
5871;SDS011;2962;51.312;7.378;2023-11-21T04:12:01;30.40;;;10.67;;
5871;SDS011;2962;51.312;7.378;2023-11-21T04:14:26;19.00;;;9.17;;
5871;SDS011;2962;51.312;7.378;2023-11-21T04:16:52;21.67;;;8.80;;
5871;SDS011;2962;51.312;7.378;2023-11-21T04:19:18;23.20;;;9.53;;
5871;SDS011;2962;51.312;7.378;2023-11-21T04:21:44;23.60;;;9.83;;
5871;SDS011;2962;51.312;7.378;2023-11-21T04:24:09;19.83;;;9.87;;
5871;SDS011;2962;51.312;7.378;2023-11-21T04:26:35;29.90;;;10.60;;
5871;SDS011;2962;51.312;7.378;2023-11-21T04:29:00;29.40;;;11.27;;
5871;SDS011;2962;51.312;7.378;2023-11-21T04:31:26;22.47;;;10.57;;
5871;SDS011;2962;51.312;7.378;2023-11-21T04:33:51;24.17;;;12.20;;
5871;SDS011;2962;51.312;7.378;2023-11-21T04:36:16;25.70;;;12.63;;
5871;SDS011;2962;51.312;7.378;2023-11-21T04:38:42;36.33;;;13.23;;
5871;SDS011;2962;51.312;7.378;2023-11-21T04:41:07;30.50;;;12.80;;
5871;SDS011;2962;51.312;7.378;2023-11-21T04:43:33;27.40;;;11.10;;
5871;SDS011;2962;51.312;7.378;2023-11-21T04:45:58;29.13;;;13.27;;
5871;SDS011;2962;51.312;7.378;2023-11-21T04:48:23;33.23;;;13.40;;
5871;SDS011;2962;51.312;7.378;2023-11-21T04:50:49;28.83;;;11.90;;
5871;SDS011;2962;51.312;7.378;2023-11-21T04:53:14;36.53;;;14.83;;
5871;SDS011;2962;51.312;7.378;2023-11-21T04:55:40;35.67;;;14.07;;
5871;SDS011;2962;51.312;7.378;2023-11-21T04:58:05;26.27;;;13.30;;
5871;SDS011;2962;51.312;7.378;2023-11-21T05:00:31;39.73;;;14.87;;
5871;SDS011;2962;51.312;7.378;2023-11-21T05:02:56;39.73;;;16.83;;
5871;SDS011;2962;51.312;7.378;2023-11-21T05:05:22;29.00;;;13.83;;
5871;SDS011;2962;51.312;7.378;2023-11-21T05:07:47;34.43;;;14.07;;
5871;SDS011;2962;51.312;7.378;2023-11-21T05:10:14;27.57;;;14.20;;
5871;SDS011;2962;51.312;7.378;2023-11-21T05:12:40;37.20;;;14.40;;
5871;SDS011;2962;51.312;7.378;2023-11-21T05:15:07;30.20;;;13.23;;
5871;SDS011;2962;51.312;7.378;2023-11-21T05:17:37;35.63;;;14.80;;
5871;SDS011;2962;51.312;7.378;2023-11-21T05:20:06;28.77;;;13.63;;
5871;SDS011;2962;51.312;7.378;2023-11-21T05:22:34;33.73;;;14.50;;
5871;SDS011;2962;51.312;7.378;2023-11-21T05:25:00;29.30;;;14.03;;
5871;SDS011;2962;51.312;7.378;2023-11-21T05:27:25;40.40;;;15.47;;
5871;SDS011;2962;51.312;7.378;2023-11-21T05:29:50;45.07;;;15.77;;
5871;SDS011;2962;51.312;7.378;2023-11-21T05:32:16;56.03;;;17.90;;
5871;SDS011;2962;51.312;7.378;2023-11-21T05:34:42;50.90;;;16.90;;
5871;SDS011;2962;51.312;7.378;2023-11-21T05:37:07;38.87;;;14.13;;
5871;SDS011;2962;51.312;7.378;2023-11-21T05:39:33;45.93;;;15.33;;
5871;SDS011;2962;51.312;7.378;2023-11-21T05:41:58;38.50;;;15.40;;
5871;SDS011;2962;51.312;7.378;2023-11-21T05:44:25;44.90;;;15.33;;
5871;SDS011;2962;51.312;7.378;2023-11-21T05:46:50;50.73;;;16.97;;
5871;SDS011;2962;51.312;7.378;2023-11-21T05:49:15;47.67;;;14.93;;
5871;SDS011;2962;51.312;7.378;2023-11-21T05:51:41;34.30;;;14.07;;
5871;SDS011;2962;51.312;7.378;2023-11-21T05:54:06;35.93;;;13.33;;
5871;SDS011;2962;51.312;7.378;2023-11-21T05:56:32;38.73;;;13.47;;
5871;SDS011;2962;51.312;7.378;2023-11-21T05:58:58;38.53;;;14.60;;
5871;SDS011;2962;51.312;7.378;2023-11-21T06:01:24;46.13;;;15.80;;
5871;SDS011;2962;51.312;7.378;2023-11-21T06:03:53;39.90;;;14.63;;
5871;SDS011;2962;51.312;7.378;2023-11-21T06:06:18;37.20;;;14.70;;
5871;SDS011;2962;51.312;7.378;2023-11-21T06:08:44;35.97;;;15.27;;
5871;SDS011;2962;51.312;7.378;2023-11-21T06:11:09;45.10;;;16.23;;
5871;SDS011;2962;51.312;7.378;2023-11-21T06:13:36;35.57;;;15.23;;
5871;SDS011;2962;51.312;7.378;2023-11-21T06:16:01;47.27;;;16.40;;
5871;SDS011;2962;51.312;7.378;2023-11-21T06:18:27;39.23;;;15.73;;
5871;SDS011;2962;51.312;7.378;2023-11-21T06:20:52;34.60;;;16.37;;
5871;SDS011;2962;51.312;7.378;2023-11-21T06:23:18;38.00;;;15.40;;
5871;SDS011;2962;51.312;7.378;2023-11-21T06:25:43;47.33;;;14.70;;
5871;SDS011;2962;51.312;7.378;2023-11-21T06:28:09;44.73;;;14.90;;
5871;SDS011;2962;51.312;7.378;2023-11-21T06:30:35;42.97;;;15.07;;
5871;SDS011;2962;51.312;7.378;2023-11-21T06:33:00;44.43;;;16.87;;
5871;SDS011;2962;51.312;7.378;2023-11-21T06:35:26;43.13;;;16.83;;
5871;SDS011;2962;51.312;7.378;2023-11-21T06:37:54;38.67;;;15.23;;
5871;SDS011;2962;51.312;7.378;2023-11-21T06:40:20;33.17;;;15.37;;
5871;SDS011;2962;51.312;7.378;2023-11-21T06:42:45;43.33;;;16.60;;
5871;SDS011;2962;51.312;7.378;2023-11-21T06:45:11;41.87;;;17.50;;
5871;SDS011;2962;51.312;7.378;2023-11-21T06:47:37;49.73;;;18.67;;
5871;SDS011;2962;51.312;7.378;2023-11-21T06:50:03;48.20;;;18.30;;
5871;SDS011;2962;51.312;7.378;2023-11-21T06:52:29;53.50;;;18.90;;
5871;SDS011;2962;51.312;7.378;2023-11-21T06:54:54;45.07;;;19.20;;
5871;SDS011;2962;51.312;7.378;2023-11-21T06:57:19;43.47;;;16.37;;
5871;SDS011;2962;51.312;7.378;2023-11-21T06:59:45;40.00;;;17.13;;
5871;SDS011;2962;51.312;7.378;2023-11-21T07:02:10;46.53;;;17.60;;
5871;SDS011;2962;51.312;7.378;2023-11-21T07:04:36;54.30;;;17.73;;
5871;SDS011;2962;51.312;7.378;2023-11-21T07:07:04;48.33;;;19.10;;
5871;SDS011;2962;51.312;7.378;2023-11-21T07:09:32;57.13;;;17.97;;
5871;SDS011;2962;51.312;7.378;2023-11-21T07:11:57;48.77;;;18.43;;
5871;SDS011;2962;51.312;7.378;2023-11-21T07:14:23;41.70;;;17.60;;
5871;SDS011;2962;51.312;7.378;2023-11-21T07:16:48;37.47;;;16.40;;
5871;SDS011;2962;51.312;7.378;2023-11-21T07:19:13;46.93;;;17.30;;
5871;SDS011;2962;51.312;7.378;2023-11-21T07:21:39;52.57;;;19.50;;
5871;SDS011;2962;51.312;7.378;2023-11-21T07:24:05;43.63;;;18.30;;
5871;SDS011;2962;51.312;7.378;2023-11-21T07:26:31;44.30;;;19.53;;
5871;SDS011;2962;51.312;7.378;2023-11-21T07:28:58;53.17;;;17.83;;
5871;SDS011;2962;51.312;7.378;2023-11-21T07:31:23;41.47;;;17.70;;
5871;SDS011;2962;51.312;7.378;2023-11-21T07:33:49;40.83;;;16.20;;
5871;SDS011;2962;51.312;7.378;2023-11-21T07:36:15;42.07;;;16.63;;
5871;SDS011;2962;51.312;7.378;2023-11-21T07:38:43;49.80;;;16.30;;
5871;SDS011;2962;51.312;7.378;2023-11-21T07:41:10;41.17;;;16.10;;
5871;SDS011;2962;51.312;7.378;2023-11-21T07:43:36;44.07;;;15.73;;
5871;SDS011;2962;51.312;7.378;2023-11-21T07:46:02;38.87;;;14.87;;
5871;SDS011;2962;51.312;7.378;2023-11-21T07:48:29;36.60;;;15.17;;
5871;SDS011;2962;51.312;7.378;2023-11-21T07:50:54;40.37;;;15.50;;
5871;SDS011;2962;51.312;7.378;2023-11-21T07:53:19;45.10;;;16.00;;
5871;SDS011;2962;51.312;7.378;2023-11-21T07:55:45;32.63;;;14.50;;
5871;SDS011;2962;51.312;7.378;2023-11-21T07:58:12;40.53;;;15.53;;
5871;SDS011;2962;51.312;7.378;2023-11-21T08:00:37;36.47;;;14.07;;
5871;SDS011;2962;51.312;7.378;2023-11-21T08:03:04;48.63;;;16.40;;
5871;SDS011;2962;51.312;7.378;2023-11-21T08:05:30;40.73;;;14.60;;
5871;SDS011;2962;51.312;7.378;2023-11-21T08:07:56;50.27;;;14.30;;
5871;SDS011;2962;51.312;7.378;2023-11-21T08:10:21;52.63;;;13.87;;
5871;SDS011;2962;51.312;7.378;2023-11-21T08:12:46;47.47;;;15.20;;
5871;SDS011;2962;51.312;7.378;2023-11-21T08:15:13;57.03;;;13.83;;
5871;SDS011;2962;51.312;7.378;2023-11-21T08:17:39;38.07;;;14.80;;
5871;SDS011;2962;51.312;7.378;2023-11-21T08:20:04;49.37;;;14.10;;
5871;SDS011;2962;51.312;7.378;2023-11-21T08:22:31;55.73;;;15.77;;
5871;SDS011;2962;51.312;7.378;2023-11-21T08:24:57;53.93;;;14.17;;
5871;SDS011;2962;51.312;7.378;2023-11-21T08:27:23;38.90;;;14.33;;
5871;SDS011;2962;51.312;7.378;2023-11-21T08:29:48;34.73;;;13.10;;
5871;SDS011;2962;51.312;7.378;2023-11-21T08:32:13;38.63;;;13.20;;
5871;SDS011;2962;51.312;7.378;2023-11-21T08:34:39;44.40;;;12.33;;
5871;SDS011;2962;51.312;7.378;2023-11-21T08:37:05;30.07;;;12.13;;
5871;SDS011;2962;51.312;7.378;2023-11-21T08:39:30;41.50;;;12.47;;
5871;SDS011;2962;51.312;7.378;2023-11-21T08:41:56;48.77;;;14.97;;
5871;SDS011;2962;51.312;7.378;2023-11-21T08:44:22;38.27;;;13.93;;
5871;SDS011;2962;51.312;7.378;2023-11-21T08:46:48;32.03;;;14.57;;
5871;SDS011;2962;51.312;7.378;2023-11-21T08:49:14;50.70;;;16.87;;
5871;SDS011;2962;51.312;7.378;2023-11-21T08:51:40;53.80;;;14.73;;
5871;SDS011;2962;51.312;7.378;2023-11-21T08:54:06;54.63;;;17.10;;
5871;SDS011;2962;51.312;7.378;2023-11-21T08:56:33;55.50;;;17.30;;
5871;SDS011;2962;51.312;7.378;2023-11-21T08:58:59;62.37;;;17.93;;
5871;SDS011;2962;51.312;7.378;2023-11-21T09:01:31;55.03;;;19.47;;
5871;SDS011;2962;51.312;7.378;2023-11-21T09:03:57;71.87;;;20.90;;
5871;SDS011;2962;51.312;7.378;2023-11-21T09:06:22;62.63;;;20.37;;
5871;SDS011;2962;51.312;7.378;2023-11-21T09:08:48;52.10;;;19.77;;
5871;SDS011;2962;51.312;7.378;2023-11-21T09:11:13;42.77;;;18.77;;
5871;SDS011;2962;51.312;7.378;2023-11-21T09:13:38;48.17;;;19.13;;
5871;SDS011;2962;51.312;7.378;2023-11-21T09:16:04;52.90;;;18.17;;
5871;SDS011;2962;51.312;7.378;2023-11-21T09:18:30;49.40;;;20.10;;
5871;SDS011;2962;51.312;7.378;2023-11-21T09:20:56;57.53;;;20.27;;
5871;SDS011;2962;51.312;7.378;2023-11-21T09:23:21;60.77;;;20.43;;
5871;SDS011;2962;51.312;7.378;2023-11-21T09:25:47;50.17;;;17.97;;
5871;SDS011;2962;51.312;7.378;2023-11-21T09:28:14;68.23;;;22.60;;
5871;SDS011;2962;51.312;7.378;2023-11-21T09:30:40;55.10;;;19.20;;
5871;SDS011;2962;51.312;7.378;2023-11-21T09:33:05;66.90;;;17.20;;
5871;SDS011;2962;51.312;7.378;2023-11-21T09:35:31;61.27;;;20.20;;
5871;SDS011;2962;51.312;7.378;2023-11-21T09:37:57;48.77;;;18.30;;
5871;SDS011;2962;51.312;7.378;2023-11-21T09:40:22;56.80;;;16.70;;
5871;SDS011;2962;51.312;7.378;2023-11-21T09:45:27;59.93;;;18.83;;
5871;SDS011;2962;51.312;7.378;2023-11-21T09:47:54;51.27;;;18.50;;
5871;SDS011;2962;51.312;7.378;2023-11-21T09:50:20;60.00;;;19.70;;
5871;SDS011;2962;51.312;7.378;2023-11-21T09:53:03;55.27;;;17.73;;
5871;SDS011;2962;51.312;7.378;2023-11-21T09:55:42;58.40;;;18.70;;
5871;SDS011;2962;51.312;7.378;2023-11-21T09:58:09;62.07;;;19.53;;
5871;SDS011;2962;51.312;7.378;2023-11-21T10:00:37;70.97;;;18.90;;
5871;SDS011;2962;51.312;7.378;2023-11-21T10:03:05;62.10;;;18.50;;
5871;SDS011;2962;51.312;7.378;2023-11-21T10:05:30;60.73;;;19.60;;
5871;SDS011;2962;51.312;7.378;2023-11-21T10:07:59;67.33;;;20.63;;
5871;SDS011;2962;51.312;7.378;2023-11-21T10:10:25;61.83;;;19.97;;
5871;SDS011;2962;51.312;7.378;2023-11-21T10:12:52;64.90;;;20.10;;
5871;SDS011;2962;51.312;7.378;2023-11-21T10:15:22;57.20;;;19.33;;
5871;SDS011;2962;51.312;7.378;2023-11-21T10:17:51;72.23;;;21.57;;
5871;SDS011;2962;51.312;7.378;2023-11-21T10:20:19;52.67;;;19.20;;
5871;SDS011;2962;51.312;7.378;2023-11-21T10:22:45;47.33;;;19.67;;
5871;SDS011;2962;51.312;7.378;2023-11-21T10:25:10;54.93;;;20.50;;
5871;SDS011;2962;51.312;7.378;2023-11-21T10:27:39;56.67;;;15.93;;
5871;SDS011;2962;51.312;7.378;2023-11-21T10:30:05;49.53;;;18.33;;
5871;SDS011;2962;51.312;7.378;2023-11-21T10:32:33;58.67;;;19.10;;
5871;SDS011;2962;51.312;7.378;2023-11-21T10:34:58;45.30;;;17.43;;
5871;SDS011;2962;51.312;7.378;2023-11-21T10:37:32;41.43;;;17.30;;
5871;SDS011;2962;51.312;7.378;2023-11-21T10:40:00;63.90;;;20.20;;
5871;SDS011;2962;51.312;7.378;2023-11-21T10:42:26;64.53;;;19.83;;
5871;SDS011;2962;51.312;7.378;2023-11-21T10:44:54;46.53;;;17.43;;
5871;SDS011;2962;51.312;7.378;2023-11-21T10:47:20;41.70;;;16.33;;
5871;SDS011;2962;51.312;7.378;2023-11-21T10:49:50;46.63;;;15.80;;
5871;SDS011;2962;51.312;7.378;2023-11-21T10:52:18;48.73;;;15.10;;
5871;SDS011;2962;51.312;7.378;2023-11-21T10:54:46;53.57;;;14.37;;
5871;SDS011;2962;51.312;7.378;2023-11-21T10:57:12;42.60;;;16.23;;
5871;SDS011;2962;51.312;7.378;2023-11-21T10:59:42;38.50;;;13.30;;
5871;SDS011;2962;51.312;7.378;2023-11-21T11:02:16;44.03;;;13.67;;
5871;SDS011;2962;51.312;7.378;2023-11-21T11:04:50;37.77;;;12.60;;
5871;SDS011;2962;51.312;7.378;2023-11-21T11:07:17;45.37;;;14.70;;
5871;SDS011;2962;51.312;7.378;2023-11-21T11:09:42;36.70;;;13.20;;
5871;SDS011;2962;51.312;7.378;2023-11-21T11:12:10;39.97;;;13.67;;
5871;SDS011;2962;51.312;7.378;2023-11-21T11:14:36;33.03;;;13.80;;
5871;SDS011;2962;51.312;7.378;2023-11-21T11:17:06;40.27;;;16.40;;
5871;SDS011;2962;51.312;7.378;2023-11-21T11:19:33;46.63;;;14.97;;
5871;SDS011;2962;51.312;7.378;2023-11-21T11:25:03;40.23;;;13.20;;
5871;SDS011;2962;51.312;7.378;2023-11-21T11:27:50;28.67;;;12.87;;
5871;SDS011;2962;51.312;7.378;2023-11-21T11:30:26;38.50;;;14.77;;
5871;SDS011;2962;51.312;7.378;2023-11-21T11:36:29;37.43;;;13.40;;
5871;SDS011;2962;51.312;7.378;2023-11-21T11:38:59;30.13;;;10.60;;
5871;SDS011;2962;51.312;7.378;2023-11-21T11:41:27;38.17;;;13.03;;
5871;SDS011;2962;51.312;7.378;2023-11-21T11:43:55;35.73;;;12.97;;
5871;SDS011;2962;51.312;7.378;2023-11-21T11:46:21;28.33;;;12.07;;
5871;SDS011;2962;51.312;7.378;2023-11-21T11:49:06;25.07;;;11.53;;
5871;SDS011;2962;51.312;7.378;2023-11-21T11:51:33;32.30;;;11.37;;
5871;SDS011;2962;51.312;7.378;2023-11-21T11:54:00;33.93;;;12.47;;
5871;SDS011;2962;51.312;7.378;2023-11-21T11:59:03;32.13;;;12.20;;
5871;SDS011;2962;51.312;7.378;2023-11-21T12:01:31;39.47;;;13.60;;
5871;SDS011;2962;51.312;7.378;2023-11-21T12:07:10;36.73;;;12.50;;
5871;SDS011;2962;51.312;7.378;2023-11-21T12:09:38;32.70;;;12.40;;
5871;SDS011;2962;51.312;7.378;2023-11-21T12:12:04;49.17;;;15.20;;
5871;SDS011;2962;51.312;7.378;2023-11-21T12:14:30;49.63;;;15.20;;
5871;SDS011;2962;51.312;7.378;2023-11-21T12:16:55;37.43;;;13.33;;
5871;SDS011;2962;51.312;7.378;2023-11-21T12:19:21;39.80;;;13.83;;
5871;SDS011;2962;51.312;7.378;2023-11-21T12:21:47;49.10;;;15.07;;
5871;SDS011;2962;51.312;7.378;2023-11-21T12:24:13;41.17;;;14.90;;
5871;SDS011;2962;51.312;7.378;2023-11-21T12:26:39;47.57;;;15.30;;
5871;SDS011;2962;51.312;7.378;2023-11-21T12:29:05;58.10;;;16.23;;
5871;SDS011;2962;51.312;7.378;2023-11-21T12:31:32;57.57;;;16.53;;
5871;SDS011;2962;51.312;7.378;2023-11-21T12:33:59;61.83;;;16.10;;
5871;SDS011;2962;51.312;7.378;2023-11-21T12:36:25;54.47;;;18.50;;
5871;SDS011;2962;51.312;7.378;2023-11-21T12:38:51;69.90;;;17.33;;
5871;SDS011;2962;51.312;7.378;2023-11-21T12:41:16;55.83;;;16.27;;
5871;SDS011;2962;51.312;7.378;2023-11-21T12:43:46;66.50;;;19.07;;
5871;SDS011;2962;51.312;7.378;2023-11-21T12:46:12;263.00;;;23.37;;
5871;SDS011;2962;51.312;7.378;2023-11-21T12:48:41;130.63;;;17.90;;
5871;SDS011;2962;51.312;7.378;2023-11-21T12:51:13;138.80;;;17.90;;
5871;SDS011;2962;51.312;7.378;2023-11-21T12:53:43;289.13;;;21.97;;
5871;SDS011;2962;51.312;7.378;2023-11-21T12:56:12;672.17;;;35.47;;
5871;SDS011;2962;51.312;7.378;2023-11-21T12:58:37;1091.13;;;58.90;;
5871;SDS011;2962;51.312;7.378;2023-11-21T13:01:04;728.60;;;37.23;;
5871;SDS011;2962;51.312;7.378;2023-11-21T13:03:36;281.47;;;22.53;;
5871;SDS011;2962;51.312;7.378;2023-11-21T13:06:02;710.60;;;49.93;;
5871;SDS011;2962;51.312;7.378;2023-11-21T13:08:30;671.13;;;37.90;;
5871;SDS011;2962;51.312;7.378;2023-11-21T13:10:56;659.07;;;42.07;;
5871;SDS011;2962;51.312;7.378;2023-11-21T13:13:22;841.20;;;48.63;;
5871;SDS011;2962;51.312;7.378;2023-11-21T13:15:50;965.17;;;55.93;;
5871;SDS011;2962;51.312;7.378;2023-11-21T13:18:17;837.27;;;52.47;;
5871;SDS011;2962;51.312;7.378;2023-11-21T13:20:43;1130.33;;;65.67;;
5871;SDS011;2962;51.312;7.378;2023-11-21T13:23:10;628.23;;;37.50;;
5871;SDS011;2962;51.312;7.378;2023-11-21T13:25:40;1018.87;;;61.17;;
5871;SDS011;2962;51.312;7.378;2023-11-21T13:28:06;249.97;;;23.40;;
5871;SDS011;2962;51.312;7.378;2023-11-21T13:30:32;193.87;;;20.50;;
5871;SDS011;2962;51.312;7.378;2023-11-21T13:33:02;268.87;;;24.80;;
5871;SDS011;2962;51.312;7.378;2023-11-21T13:35:31;460.83;;;31.43;;
5871;SDS011;2962;51.312;7.378;2023-11-21T13:38:06;771.53;;;53.17;;
5871;SDS011;2962;51.312;7.378;2023-11-21T13:40:36;1359.33;;;80.90;;
5871;SDS011;2962;51.312;7.378;2023-11-21T13:43:08;1033.67;;;61.70;;
5871;SDS011;2962;51.312;7.378;2023-11-21T13:45:37;1233.47;;;80.20;;
5871;SDS011;2962;51.312;7.378;2023-11-21T13:48:07;1578.30;;;95.33;;
5871;SDS011;2962;51.312;7.378;2023-11-21T13:50:44;1155.87;;;65.13;;
5871;SDS011;2962;51.312;7.378;2023-11-21T13:53:23;1017.87;;;62.60;;
5871;SDS011;2962;51.312;7.378;2023-11-21T13:55:48;1447.20;;;92.70;;
5871;SDS011;2962;51.312;7.378;2023-11-21T13:58:15;1656.40;;;99.57;;
5871;SDS011;2962;51.312;7.378;2023-11-21T14:00:45;1261.70;;;79.20;;
5871;SDS011;2962;51.312;7.378;2023-11-21T14:03:14;1510.23;;;97.10;;
5871;SDS011;2962;51.312;7.378;2023-11-21T14:05:45;1551.37;;;98.07;;
5871;SDS011;2962;51.312;7.378;2023-11-21T14:08:19;1843.00;;;111.67;;
5871;SDS011;2962;51.312;7.378;2023-11-21T14:10:46;1790.43;;;103.07;;
5871;SDS011;2962;51.312;7.378;2023-11-21T14:13:22;1752.67;;;103.90;;
5871;SDS011;2962;51.312;7.378;2023-11-21T14:15:51;1700.03;;;109.27;;
5871;SDS011;2962;51.312;7.378;2023-11-21T14:18:22;1947.77;;;111.57;;
5871;SDS011;2962;51.312;7.378;2023-11-21T14:20:55;1728.43;;;103.90;;
5871;SDS011;2962;51.312;7.378;2023-11-21T14:23:21;1646.87;;;107.10;;
5871;SDS011;2962;51.312;7.378;2023-11-21T14:25:48;1609.37;;;99.30;;
5871;SDS011;2962;51.312;7.378;2023-11-21T14:28:14;1668.90;;;89.97;;
5871;SDS011;2962;51.312;7.378;2023-11-21T14:30:40;1609.47;;;91.80;;
5871;SDS011;2962;51.312;7.378;2023-11-21T14:33:07;1714.70;;;101.53;;
5871;SDS011;2962;51.312;7.378;2023-11-21T14:35:34;1575.97;;;85.73;;
5871;SDS011;2962;51.312;7.378;2023-11-21T14:38:00;1180.43;;;67.60;;
5871;SDS011;2962;51.312;7.378;2023-11-21T14:40:27;631.03;;;36.70;;
5871;SDS011;2962;51.312;7.378;2023-11-21T14:42:57;801.43;;;42.97;;
5871;SDS011;2962;51.312;7.378;2023-11-21T14:45:23;751.23;;;37.83;;
5871;SDS011;2962;51.312;7.378;2023-11-21T14:47:51;878.03;;;46.27;;
5871;SDS011;2962;51.312;7.378;2023-11-21T14:50:31;883.00;;;47.60;;
5871;SDS011;2962;51.312;7.378;2023-11-21T14:53:06;196.70;;;14.53;;
5871;SDS011;2962;51.312;7.378;2023-11-21T14:55:32;252.37;;;22.80;;
5871;SDS011;2962;51.312;7.378;2023-11-21T14:58:08;384.40;;;25.00;;
5871;SDS011;2962;51.312;7.378;2023-11-21T15:00:37;373.33;;;26.67;;